createdAt,value
2018-11-13T00:02:08.274Z,7.30
2018-11-13T00:04:36.463Z,7.40
2018-11-13T00:07:04.659Z,7.40
2018-11-13T00:09:32.827Z,7.30
2018-11-13T00:12:01.043Z,7.20
2018-11-13T00:14:29.256Z,7.10
2018-11-13T00:16:57.430Z,7.10
2018-11-13T00:19:25.602Z,7.00
2018-11-13T00:21:53.800Z,7.10
2018-11-13T00:24:21.971Z,7.00
2018-11-13T00:26:50.155Z,7.10
2018-11-13T00:29:18.345Z,7.10
2018-11-13T00:31:46.566Z,7.10
2018-11-13T00:34:14.764Z,7.10
2018-11-13T00:36:42.991Z,7.00
2018-11-13T00:39:12.988Z,7.10
2018-11-13T00:41:41.271Z,7.00
2018-11-13T00:44:10.154Z,6.90
2018-11-13T00:46:38.742Z,6.90
2018-11-13T00:49:07.118Z,6.90
2018-11-13T00:51:36.061Z,6.90
2018-11-13T00:54:04.242Z,6.90
2018-11-13T00:56:32.411Z,6.90
2018-11-13T00:59:00.590Z,6.90
2018-11-13T01:01:28.809Z,6.90
2018-11-13T01:03:56.990Z,6.90
2018-11-13T01:06:25.171Z,6.80
2018-11-13T01:08:53.387Z,6.90
2018-11-13T01:11:21.580Z,6.90
2018-11-13T01:13:49.811Z,6.90
2018-11-13T01:16:18.031Z,7.00
2018-11-13T01:18:46.920Z,7.00
2018-11-13T01:21:15.096Z,6.90
2018-11-13T01:23:43.297Z,6.90
2018-11-13T01:26:11.455Z,6.80
2018-11-13T01:28:39.635Z,6.90
2018-11-13T01:31:07.852Z,6.80
2018-11-13T01:33:36.035Z,6.80
2018-11-13T01:36:04.255Z,6.80
2018-11-13T01:38:32.437Z,6.90
2018-11-13T01:41:00.631Z,6.80
2018-11-13T01:43:28.847Z,6.80
2018-11-13T01:45:57.028Z,6.80
2018-11-13T01:48:25.209Z,6.80
2018-11-13T01:50:53.421Z,6.70
2018-11-13T01:53:21.644Z,6.70
2018-11-13T01:55:49.846Z,6.70
2018-11-13T01:58:18.073Z,6.70
2018-11-13T02:00:46.274Z,6.70
2018-11-13T02:03:14.471Z,6.70
2018-11-13T02:05:42.663Z,6.50
2018-11-13T02:08:10.862Z,6.60
2018-11-13T02:10:39.085Z,6.50
2018-11-13T02:13:07.294Z,6.50
2018-11-13T02:15:35.502Z,6.50
2018-11-13T02:18:03.706Z,6.50
2018-11-13T02:20:31.891Z,6.60
2018-11-13T02:23:00.116Z,6.60
2018-11-13T02:25:28.355Z,6.60
2018-11-13T02:27:56.547Z,6.60
2018-11-13T02:30:24.792Z,6.50
2018-11-13T02:32:52.995Z,6.50
2018-11-13T02:35:21.278Z,6.50
2018-11-13T02:37:49.436Z,6.40
2018-11-13T02:40:17.630Z,6.40
2018-11-13T02:42:45.848Z,6.40
2018-11-13T02:45:15.963Z,6.40
2018-11-13T02:47:44.171Z,6.40
2018-11-13T02:50:15.115Z,6.50
2018-11-13T02:52:43.310Z,6.50
2018-11-13T02:55:12.031Z,6.50
2018-11-13T02:57:40.714Z,6.50
2018-11-13T03:00:11.399Z,6.50
2018-11-13T03:02:39.590Z,6.40
2018-11-13T03:05:09.711Z,6.40
2018-11-13T03:07:38.238Z,6.40
2018-11-13T03:10:07.881Z,6.40
2018-11-13T03:12:36.112Z,6.40
2018-11-13T03:15:04.339Z,6.40
2018-11-13T03:17:32.534Z,6.40
2018-11-13T03:20:00.728Z,6.30
2018-11-13T03:22:28.948Z,6.30
2018-11-13T03:24:57.143Z,6.30
2018-11-13T03:27:25.335Z,6.30
2018-11-13T03:29:53.564Z,6.30
2018-11-13T03:32:21.751Z,6.20
2018-11-13T03:34:49.959Z,6.30
2018-11-13T03:37:18.186Z,6.40
2018-11-13T03:39:46.382Z,6.40
2018-11-13T03:42:14.580Z,6.50
2018-11-13T03:44:42.812Z,6.40
2018-11-13T03:47:11.012Z,6.40
2018-11-13T03:49:39.211Z,6.30
2018-11-13T03:52:07.421Z,6.30
2018-11-13T03:54:35.644Z,6.30
2018-11-13T03:57:03.810Z,6.30
2018-11-13T03:59:32.095Z,6.20
2018-11-13T04:02:00.267Z,6.20
2018-11-13T04:04:28.450Z,6.20
2018-11-13T04:06:56.626Z,6.30
2018-11-13T04:09:24.831Z,6.20
2018-11-13T04:11:53.006Z,6.20
2018-11-13T04:14:21.571Z,6.20
2018-11-13T04:16:49.734Z,6.20
2018-11-13T04:19:17.904Z,6.20
2018-11-13T04:22:02.373Z,6.10
2018-11-13T04:24:30.547Z,6.10
2018-11-13T04:26:59.024Z,6.10
2018-11-13T04:29:27.210Z,6.10
2018-11-13T04:31:55.375Z,6.00
2018-11-13T04:34:23.534Z,6.00
2018-11-13T04:36:51.719Z,6.00
2018-11-13T04:39:19.896Z,6.00
2018-11-13T04:41:48.063Z,5.90
2018-11-13T04:44:16.238Z,6.00
2018-11-13T04:46:44.583Z,5.90
2018-11-13T04:49:12.742Z,5.90
2018-11-13T04:51:41.080Z,5.90
2018-11-13T04:54:09.181Z,6.00
2018-11-13T04:56:37.387Z,6.00
2018-11-13T04:59:05.592Z,6.00
2018-11-13T05:01:33.755Z,6.00
2018-11-13T05:04:01.924Z,5.90
2018-11-13T05:06:30.091Z,5.90
2018-11-13T05:08:58.288Z,5.90
2018-11-13T05:11:26.463Z,5.90
2018-11-13T05:13:54.619Z,5.90
2018-11-13T05:16:22.794Z,5.90
2018-11-13T05:18:50.954Z,5.90
2018-11-13T05:21:19.163Z,5.90
2018-11-13T05:23:47.343Z,5.90
2018-11-13T05:26:15.544Z,5.90
2018-11-13T05:28:43.711Z,5.90
2018-11-13T05:31:11.883Z,5.90
2018-11-13T05:33:40.129Z,5.90
2018-11-13T05:36:08.357Z,6.00
2018-11-13T05:38:36.545Z,6.10
2018-11-13T05:41:04.717Z,6.00
2018-11-13T05:43:32.916Z,6.00
2018-11-13T05:46:01.392Z,6.00
2018-11-13T05:48:29.855Z,6.00
2018-11-13T05:50:59.082Z,6.00
2018-11-13T05:53:27.247Z,5.90
2018-11-13T05:55:55.445Z,5.90
2018-11-13T05:58:23.629Z,5.80
2018-11-13T06:00:51.811Z,5.80
2018-11-13T06:03:19.988Z,5.70
2018-11-13T06:05:48.332Z,5.60
2018-11-13T06:08:18.347Z,5.70
2018-11-13T06:10:47.090Z,5.70
2018-11-13T06:13:15.477Z,5.80
2018-11-13T06:15:43.839Z,5.80
2018-11-13T06:18:12.296Z,5.70
2018-11-13T06:20:40.475Z,5.70
2018-11-13T06:23:08.808Z,5.70
2018-11-13T06:25:36.960Z,5.70
2018-11-13T06:28:05.499Z,5.80
2018-11-13T06:30:33.837Z,5.80
2018-11-13T06:33:02.016Z,5.80
2018-11-13T06:35:30.201Z,5.70
2018-11-13T06:37:58.427Z,5.70
2018-11-13T06:40:26.654Z,5.70
2018-11-13T06:42:55.062Z,5.80
2018-11-13T06:45:23.655Z,5.80
2018-11-13T06:47:52.235Z,5.90
2018-11-13T06:50:20.411Z,5.90
2018-11-13T06:52:49.539Z,5.90
2018-11-13T06:55:34.456Z,5.90
2018-11-13T06:58:03.035Z,6.00
2018-11-13T07:00:31.308Z,6.10
2018-11-13T07:02:59.577Z,6.20
2018-11-13T07:05:27.788Z,6.20
2018-11-13T07:07:56.035Z,6.20
2018-11-13T07:10:25.534Z,6.30
2018-11-13T07:12:54.447Z,6.40
2018-11-13T07:15:24.439Z,6.50
2018-11-13T07:17:54.352Z,6.50
2018-11-13T07:20:23.447Z,6.60
2018-11-13T07:22:51.682Z,6.70
2018-11-13T07:25:19.920Z,6.90
2018-11-13T07:27:48.162Z,6.90
2018-11-13T07:30:17.366Z,7.00
2018-11-13T07:32:45.534Z,7.10
2018-11-13T07:35:14.876Z,7.30
2018-11-13T07:37:58.858Z,7.50
2018-11-13T07:40:27.089Z,7.70
2018-11-13T07:42:55.439Z,8.00
2018-11-13T07:45:23.624Z,8.00
2018-11-13T07:47:52.216Z,8.20
2018-11-13T07:50:20.310Z,8.40
2018-11-13T07:52:48.508Z,8.60
2018-11-13T07:55:17.115Z,8.70
2018-11-13T07:57:45.382Z,9.00
2018-11-13T08:00:18.673Z,9.20
2018-11-13T08:02:48.274Z,9.40
2018-11-13T08:05:16.447Z,9.50
2018-11-13T08:07:44.635Z,9.60
2018-11-13T08:10:13.220Z,9.80
2018-11-13T08:12:41.866Z,9.90
2018-11-13T08:15:12.145Z,9.90
2018-11-13T08:17:40.418Z,10.10
2018-11-13T08:20:10.528Z,10.20
2018-11-13T08:22:38.703Z,10.50
2018-11-13T08:25:08.327Z,10.70
2018-11-13T08:27:37.683Z,10.80
2018-11-13T08:30:08.313Z,10.90
2018-11-13T08:32:36.491Z,11.00
2018-11-13T08:35:05.600Z,11.20
2018-11-13T08:37:33.733Z,11.30
2018-11-13T08:40:01.984Z,11.40
2018-11-13T08:42:30.131Z,11.50
2018-11-13T08:44:58.310Z,11.60
2018-11-13T08:47:26.499Z,11.80
2018-11-13T08:49:54.683Z,11.80
2018-11-13T08:52:22.908Z,12.10
2018-11-13T08:54:51.171Z,12.20
2018-11-13T08:59:50.472Z,12.40
2018-11-13T09:02:18.646Z,12.60
2018-11-13T09:04:46.840Z,12.50
2018-11-13T09:07:15.032Z,12.50
2018-11-13T09:09:43.206Z,12.60
2018-11-13T09:12:11.440Z,12.70
2018-11-13T09:14:39.572Z,12.80
2018-11-13T09:17:07.727Z,12.90
2018-11-13T09:19:36.381Z,12.90
2018-11-13T09:22:04.858Z,13.10
2018-11-13T09:24:32.963Z,13.20
2018-11-13T09:27:01.148Z,13.40
2018-11-13T09:29:29.357Z,13.60
2018-11-13T09:31:57.554Z,13.70
2018-11-13T09:34:25.720Z,13.60
2018-11-13T09:36:53.981Z,13.50
2018-11-13T09:39:22.196Z,13.50
2018-11-13T09:41:50.302Z,13.40
2018-11-13T09:44:18.580Z,13.40
2018-11-13T09:46:46.777Z,13.40
2018-11-13T09:49:14.931Z,13.40
2018-11-13T09:51:43.132Z,13.50
2018-11-13T09:54:11.301Z,13.40
2018-11-13T09:56:39.460Z,13.40
2018-11-13T09:59:07.663Z,13.40
2018-11-13T10:01:36.497Z,13.40
2018-11-13T10:04:04.570Z,13.40
2018-11-13T10:06:32.276Z,13.40
2018-11-13T10:09:00.456Z,13.30
2018-11-13T10:11:28.639Z,13.10
2018-11-13T10:13:57.008Z,13.10
2018-11-13T10:16:25.238Z,13.00
2018-11-13T10:18:53.415Z,13.00
2018-11-13T10:21:21.973Z,13.00
2018-11-13T10:23:50.148Z,13.10
2018-11-13T10:26:18.381Z,13.10
2018-11-13T10:28:46.506Z,13.20
2018-11-13T10:31:14.721Z,13.20
2018-11-13T10:33:42.932Z,13.20
2018-11-13T10:36:11.532Z,13.20
2018-11-13T10:38:39.699Z,13.20
2018-11-13T10:41:08.034Z,13.40
2018-11-13T10:43:36.166Z,13.50
2018-11-13T10:46:04.675Z,13.50
2018-11-13T10:48:32.864Z,13.50
2018-11-13T10:51:01.088Z,13.50
2018-11-13T10:53:29.296Z,13.50
2018-11-13T10:55:57.504Z,13.50
2018-11-13T10:58:25.712Z,13.50
2018-11-13T11:00:58.123Z,13.50
2018-11-13T11:03:32.808Z,13.40
2018-11-13T11:06:00.983Z,13.50
2018-11-13T11:08:29.435Z,13.50
2018-11-13T11:10:57.606Z,13.40
2018-11-13T11:13:25.850Z,13.30
2018-11-13T11:15:54.092Z,13.10
2018-11-13T11:18:22.304Z,13.00
2018-11-13T11:20:50.467Z,12.90
2018-11-13T11:23:18.658Z,12.90
2018-11-13T11:25:46.818Z,12.90
2018-11-13T11:28:15.057Z,12.80
2018-11-13T11:30:43.399Z,12.80
2018-11-13T11:33:11.612Z,12.70
2018-11-13T11:35:39.782Z,12.70
2018-11-13T11:38:07.963Z,12.70
2018-11-13T11:40:36.139Z,12.70
2018-11-13T11:43:04.324Z,12.60
2018-11-13T11:45:32.499Z,12.60
2018-11-13T11:48:00.705Z,12.60
2018-11-13T11:50:28.929Z,12.70
2018-11-13T11:52:57.125Z,12.60
2018-11-13T11:55:25.340Z,12.60
2018-11-13T11:57:53.540Z,12.60
2018-11-13T12:00:27.111Z,12.70
2018-11-13T12:02:55.280Z,12.70
2018-11-13T12:05:23.447Z,12.70
2018-11-13T12:07:51.635Z,12.50
2018-11-13T12:10:19.803Z,12.50
2018-11-13T12:12:47.979Z,12.60
2018-11-13T12:15:16.138Z,12.50
2018-11-13T12:17:44.911Z,12.40
2018-11-13T12:20:14.123Z,12.50
2018-11-13T12:22:42.506Z,12.40
2018-11-13T12:25:12.704Z,12.40
2018-11-13T12:27:41.399Z,12.30
2018-11-13T12:30:11.495Z,12.30
2018-11-13T12:32:39.662Z,12.40
2018-11-13T12:35:09.542Z,12.40
2018-11-13T12:37:38.020Z,12.30
2018-11-13T12:40:07.751Z,12.20
2018-11-13T12:42:35.906Z,12.20
2018-11-13T12:45:04.198Z,12.20
2018-11-13T12:47:32.392Z,12.30
2018-11-13T12:50:00.645Z,12.30
2018-11-13T12:52:28.798Z,12.40
2018-11-13T12:54:56.996Z,12.30
2018-11-13T12:57:25.174Z,12.40
2018-11-13T12:59:53.380Z,12.40
2018-11-13T13:02:21.641Z,12.40
2018-11-13T13:04:50.040Z,12.30
2018-11-13T13:07:18.203Z,12.30
2018-11-13T13:09:46.371Z,12.30
2018-11-13T13:12:14.543Z,12.20
2018-11-13T13:14:42.774Z,12.20
2018-11-13T13:17:10.883Z,12.20
2018-11-13T13:19:39.112Z,12.30
2018-11-13T13:22:07.302Z,12.30
2018-11-13T13:24:35.435Z,12.20
2018-11-13T13:27:03.599Z,12.10
2018-11-13T13:29:31.764Z,12.20
2018-11-13T13:31:59.997Z,12.20
2018-11-13T13:34:28.108Z,12.30
2018-11-13T13:36:56.341Z,12.30
2018-11-13T13:39:24.564Z,12.20
2018-11-13T13:41:52.773Z,12.30
2018-11-13T13:44:20.931Z,12.20
2018-11-13T13:46:49.199Z,12.00
2018-11-13T13:49:17.319Z,12.00
2018-11-13T13:51:45.529Z,12.00
2018-11-13T13:54:13.763Z,12.10
2018-11-13T13:56:41.915Z,12.10
2018-11-13T13:59:10.100Z,12.00
2018-11-13T14:01:38.272Z,11.90
2018-11-13T14:04:06.461Z,11.90
2018-11-13T14:06:34.635Z,12.00
2018-11-13T14:09:02.853Z,12.10
2018-11-13T14:11:31.012Z,12.20
2018-11-13T14:13:59.175Z,12.10
2018-11-13T14:16:27.360Z,12.10
2018-11-13T14:18:55.562Z,12.10
2018-11-13T14:21:23.745Z,12.10
2018-11-13T14:23:51.911Z,12.00
2018-11-13T14:26:20.104Z,12.00
2018-11-13T14:28:48.267Z,11.90
2018-11-13T14:31:16.427Z,11.80
2018-11-13T14:33:44.595Z,11.90
2018-11-13T14:36:12.784Z,11.90
2018-11-13T14:38:40.980Z,11.80
2018-11-13T14:41:09.134Z,11.80
2018-11-13T14:43:37.332Z,11.80
2018-11-13T14:46:05.820Z,11.90
2018-11-13T14:48:34.004Z,11.90
2018-11-13T14:51:02.203Z,11.80
2018-11-13T14:53:30.403Z,11.70
2018-11-13T14:55:58.650Z,11.80
2018-11-13T14:58:26.857Z,11.70
2018-11-13T15:00:55.056Z,11.70
2018-11-13T15:03:23.240Z,11.80
2018-11-13T15:05:51.407Z,11.80
2018-11-13T15:08:20.005Z,11.80
2018-11-13T15:10:51.084Z,11.90
2018-11-13T15:13:20.011Z,11.80
2018-11-13T15:15:48.454Z,11.70
2018-11-13T15:18:16.773Z,11.80
2018-11-13T15:20:45.463Z,11.70
2018-11-13T15:23:14.078Z,11.70
2018-11-13T15:25:42.266Z,11.70
2018-11-13T15:28:12.043Z,11.70
2018-11-13T15:30:42.541Z,11.80
2018-11-13T15:33:14.604Z,11.90
2018-11-13T15:35:42.816Z,11.90
2018-11-13T15:38:11.079Z,11.80
2018-11-13T15:40:39.286Z,11.50
2018-11-13T15:43:07.685Z,11.50
2018-11-13T15:45:35.879Z,11.50
2018-11-13T15:48:05.490Z,11.50
2018-11-13T15:50:34.495Z,11.60
2018-11-13T15:53:02.675Z,11.70
2018-11-13T15:55:30.855Z,11.70
2018-11-13T15:57:59.515Z,11.70
2018-11-13T16:00:30.663Z,11.60
2018-11-13T16:03:00.234Z,11.60
2018-11-13T16:05:30.936Z,11.60
2018-11-13T16:08:00.091Z,11.40
2018-11-13T16:10:28.328Z,11.40
2018-11-13T16:12:56.775Z,11.40
2018-11-13T16:15:25.738Z,11.30
2018-11-13T16:17:55.058Z,11.40
2018-11-13T16:20:23.561Z,11.30
2018-11-13T16:22:51.742Z,11.30
2018-11-13T16:25:19.954Z,11.40
2018-11-13T16:27:48.131Z,11.40
2018-11-13T16:30:17.788Z,11.40
2018-11-13T16:32:46.743Z,11.30
2018-11-13T16:35:15.944Z,11.30
2018-11-13T16:37:45.154Z,11.30
2018-11-13T16:40:16.416Z,11.20
2018-11-13T16:42:44.585Z,11.20
2018-11-13T16:45:14.089Z,11.20
2018-11-13T16:47:42.352Z,11.30
2018-11-13T16:50:17.900Z,11.30
2018-11-13T16:52:46.291Z,11.30
2018-11-13T16:55:20.051Z,11.30
2018-11-13T16:57:48.747Z,11.40
2018-11-13T17:00:17.369Z,11.40
2018-11-13T17:02:45.576Z,11.40
2018-11-13T17:05:15.054Z,11.30
2018-11-13T17:07:43.271Z,11.40
2018-11-13T17:10:19.552Z,11.30
2018-11-13T17:12:48.019Z,11.30
2018-11-13T17:15:20.494Z,11.30
2018-11-13T17:17:49.570Z,11.30
2018-11-13T17:20:17.777Z,11.20
2018-11-13T17:22:46.595Z,11.20
2018-11-13T17:25:16.164Z,11.00
2018-11-13T17:27:45.347Z,10.90
2018-11-13T17:30:16.032Z,10.70
2018-11-13T17:32:44.791Z,10.60
2018-11-13T17:35:14.174Z,10.60
2018-11-13T17:37:42.699Z,10.50
2018-11-13T17:40:13.103Z,10.30
2018-11-13T17:42:41.585Z,10.30
2018-11-13T17:45:13.215Z,10.20
2018-11-13T17:47:41.375Z,10.30
2018-11-13T17:50:13.934Z,10.30
2018-11-13T17:52:43.081Z,10.30
2018-11-13T17:55:12.180Z,10.20
2018-11-13T17:57:40.736Z,10.00
2018-11-13T18:00:13.576Z,10.00
2018-11-13T18:02:42.220Z,10.00
2018-11-13T18:05:10.575Z,9.80
2018-11-13T18:07:39.128Z,9.80
2018-11-13T18:10:07.724Z,9.70
2018-11-13T18:12:36.416Z,9.50
2018-11-13T18:15:05.708Z,9.60
2018-11-13T18:17:33.879Z,9.50
2018-11-13T18:20:02.058Z,9.40
2018-11-13T18:22:30.346Z,9.40
2018-11-13T18:24:58.672Z,9.40
2018-11-13T18:27:26.943Z,9.40
2018-11-13T18:29:55.123Z,9.30
2018-11-13T18:32:23.299Z,9.20
2018-11-13T18:34:51.484Z,9.10
2018-11-13T18:37:19.738Z,9.10
2018-11-13T18:39:48.221Z,9.10
2018-11-13T18:42:16.420Z,9.10
2018-11-13T18:44:44.624Z,8.90
2018-11-13T18:47:12.804Z,8.80
2018-11-13T18:49:40.975Z,8.80
2018-11-13T18:52:09.188Z,8.80
2018-11-13T18:54:37.353Z,8.80
2018-11-13T18:57:05.632Z,8.70
2018-11-13T18:59:34.270Z,8.60
2018-11-13T19:02:02.480Z,8.60
2018-11-13T19:04:30.654Z,8.70
2018-11-13T19:06:58.842Z,8.80
2018-11-13T19:09:27.019Z,8.70
2018-11-13T19:11:55.268Z,8.60
2018-11-13T19:14:23.694Z,8.40
2018-11-13T19:16:51.909Z,8.30
2018-11-13T19:19:20.128Z,8.30
2018-11-13T19:21:48.359Z,8.40
2018-11-13T19:24:16.538Z,8.30
2018-11-13T19:26:45.004Z,8.30
2018-11-13T19:29:13.174Z,8.30
2018-11-13T19:31:41.383Z,8.30
2018-11-13T19:34:09.617Z,8.30
2018-11-13T19:36:37.834Z,8.30
2018-11-13T19:39:08.795Z,8.30
2018-11-13T19:41:36.991Z,8.20
2018-11-13T19:44:05.815Z,8.00
2018-11-13T19:46:34.078Z,7.90
2018-11-13T19:49:02.426Z,7.80
2018-11-13T19:51:30.677Z,7.70
2018-11-13T19:53:58.950Z,7.70
2018-11-13T19:56:27.280Z,7.60
2018-11-13T19:58:55.531Z,7.50
2018-11-13T20:01:24.112Z,7.50
2018-11-13T20:03:52.298Z,7.50
2018-11-13T20:06:20.487Z,7.50
2018-11-13T20:08:49.188Z,7.40
2018-11-13T20:11:17.389Z,7.40
2018-11-13T20:13:45.604Z,7.40
2018-11-13T20:16:13.885Z,7.30
2018-11-13T20:18:42.078Z,7.20
2018-11-13T20:21:10.262Z,7.30
2018-11-13T20:23:38.460Z,7.20
2018-11-13T20:26:06.627Z,7.20
2018-11-13T20:28:34.844Z,7.20
2018-11-13T20:31:03.071Z,7.20
2018-11-13T20:33:31.238Z,7.20
2018-11-13T20:35:59.395Z,7.10
2018-11-13T20:38:27.603Z,7.00
2018-11-13T20:40:55.780Z,6.90
2018-11-13T20:43:24.006Z,6.90
2018-11-13T20:45:52.125Z,6.90
2018-11-13T20:48:20.287Z,6.90
2018-11-13T20:50:48.442Z,6.80
2018-11-13T20:53:16.621Z,6.80
2018-11-13T20:55:44.849Z,6.80
2018-11-13T20:58:13.041Z,6.80
2018-11-13T21:00:41.253Z,6.90
2018-11-13T21:03:09.458Z,6.70
2018-11-13T21:05:37.632Z,6.60
2018-11-13T21:08:05.847Z,6.60
2018-11-13T21:10:35.876Z,6.60
2018-11-13T21:13:04.335Z,6.60
2018-11-13T21:15:32.490Z,6.50
2018-11-13T21:18:00.898Z,6.50
2018-11-13T21:20:29.086Z,6.40
2018-11-13T21:22:57.526Z,6.40
2018-11-13T21:25:26.439Z,6.50
2018-11-13T21:27:56.311Z,6.40
2018-11-13T21:30:24.664Z,6.50
2018-11-13T21:32:53.279Z,6.50
2018-11-13T21:35:21.631Z,6.50
2018-11-13T21:37:51.123Z,6.50
2018-11-13T21:40:21.618Z,6.50
2018-11-13T21:42:50.804Z,6.50
2018-11-13T21:45:19.870Z,6.40
2018-11-13T21:47:48.089Z,6.40
2018-11-13T21:52:48.391Z,6.30
2018-11-13T21:55:18.306Z,6.30
2018-11-13T21:57:46.715Z,6.30
2018-11-13T22:00:16.920Z,6.20
2018-11-13T22:02:48.455Z,6.20
2018-11-13T22:05:16.627Z,6.20
2018-11-13T22:07:45.317Z,6.20
2018-11-13T22:10:13.520Z,6.10
2018-11-13T22:12:41.722Z,6.10
2018-11-13T22:15:12.945Z,6.10
2018-11-13T22:17:41.032Z,6.10
2018-11-13T22:20:10.771Z,6.10
2018-11-13T22:22:39.251Z,6.00
2018-11-13T22:25:10.386Z,5.90
2018-11-13T22:27:38.896Z,5.90
2018-11-13T22:30:08.346Z,5.90
2018-11-13T22:32:36.619Z,6.00
2018-11-13T22:35:06.302Z,6.00
2018-11-13T22:37:34.552Z,5.90
2018-11-13T22:40:02.744Z,5.90
2018-11-13T22:42:30.910Z,5.80
2018-11-13T22:44:59.070Z,5.80
2018-11-13T22:47:27.268Z,5.80
2018-11-13T22:49:55.435Z,5.80
2018-11-13T22:52:23.599Z,5.80
2018-11-13T22:54:52.096Z,5.90
2018-11-13T22:57:20.299Z,5.80
2018-11-13T22:59:48.525Z,5.80
2018-11-13T23:02:18.010Z,5.70
2018-11-13T23:04:46.583Z,5.60
2018-11-13T23:07:14.752Z,5.60
2018-11-13T23:09:42.906Z,5.60
2018-11-13T23:12:11.151Z,5.60
2018-11-13T23:14:39.369Z,5.60
2018-11-13T23:17:07.560Z,5.60
2018-11-13T23:19:35.745Z,5.60
2018-11-13T23:22:03.946Z,5.60
2018-11-13T23:24:32.137Z,5.50
2018-11-13T23:27:00.332Z,5.40
2018-11-13T23:29:28.487Z,5.40
2018-11-13T23:31:56.647Z,5.40
2018-11-13T23:34:24.807Z,5.40
2018-11-13T23:36:53.006Z,5.30
2018-11-13T23:39:21.159Z,5.30
2018-11-13T23:41:49.350Z,5.30
2018-11-13T23:44:17.537Z,5.30
2018-11-13T23:46:45.951Z,5.30
2018-11-13T23:49:14.204Z,5.20
2018-11-13T23:51:42.388Z,5.20
2018-11-13T23:54:10.636Z,5.30
2018-11-13T23:56:39.168Z,5.30
2018-11-13T23:59:07.008Z,5.20
